createdAt,value
2018-07-07T00:00:36.223Z,22.20
2018-07-07T00:03:06.164Z,22.20
2018-07-07T00:05:35.367Z,22.10
2018-07-07T00:08:05.768Z,22.10
2018-07-07T00:10:34.734Z,22.00
2018-07-07T00:13:07.398Z,22.00
2018-07-07T00:15:36.688Z,21.90
2018-07-07T00:20:34.251Z,21.90
2018-07-07T00:23:03.398Z,21.80
2018-07-07T00:25:32.341Z,21.80
2018-07-07T00:28:01.240Z,21.70
2018-07-07T00:30:30.391Z,21.70
2018-07-07T00:32:59.796Z,21.80
2018-07-07T00:35:28.738Z,21.80
2018-07-07T00:38:03.058Z,21.70
2018-07-07T00:40:34.193Z,21.70
2018-07-07T00:43:03.462Z,21.60
2018-07-07T00:45:32.404Z,21.60
2018-07-07T00:48:01.284Z,21.60
2018-07-07T00:50:30.191Z,21.60
2018-07-07T00:52:59.083Z,21.60
2018-07-07T00:55:28.026Z,21.50
2018-07-07T00:57:56.891Z,21.60
2018-07-07T01:00:35.759Z,21.50
2018-07-07T01:03:05.003Z,21.40
2018-07-07T01:05:34.915Z,21.40
2018-07-07T01:08:03.782Z,21.40
2018-07-07T01:10:32.916Z,21.40
2018-07-07T01:13:01.896Z,21.30
2018-07-07T01:15:30.814Z,21.30
2018-07-07T01:17:59.864Z,21.20
2018-07-07T01:20:28.893Z,21.30
2018-07-07T01:22:57.790Z,21.30
2018-07-07T01:25:26.711Z,21.30
2018-07-07T01:27:55.622Z,21.20
2018-07-07T01:30:24.699Z,21.20
2018-07-07T01:32:53.600Z,21.20
2018-07-07T01:35:22.708Z,21.10
2018-07-07T01:40:20.186Z,21.10
2018-07-07T01:42:49.181Z,21.00
2018-07-07T01:45:18.057Z,20.90
2018-07-07T01:47:47.151Z,20.90
2018-07-07T01:52:44.403Z,20.80
2018-07-07T01:55:13.368Z,20.80
2018-07-07T01:57:42.321Z,20.80
2018-07-07T02:00:11.220Z,20.80
2018-07-07T02:02:40.104Z,20.80
2018-07-07T02:05:09.004Z,20.80
2018-07-07T02:07:38.314Z,20.80
2018-07-07T02:10:07.226Z,20.80
2018-07-07T02:12:36.232Z,20.80
2018-07-07T02:15:05.158Z,20.80
2018-07-07T02:17:34.069Z,20.90
2018-07-07T02:20:03.156Z,20.90
2018-07-07T02:22:32.050Z,20.90
2018-07-07T02:25:01.009Z,20.80
2018-07-07T02:27:29.908Z,20.90
2018-07-07T02:29:58.988Z,20.80
2018-07-07T02:32:28.884Z,20.80
2018-07-07T02:34:57.866Z,20.90
2018-07-07T02:37:26.824Z,20.90
2018-07-07T02:42:24.344Z,21.00
2018-07-07T02:44:53.373Z,21.10
2018-07-07T02:47:22.309Z,21.10
2018-07-07T02:49:51.328Z,21.10
2018-07-07T02:52:20.556Z,21.20
2018-07-07T02:54:49.508Z,21.30
2018-07-07T02:57:18.444Z,21.30
2018-07-07T02:59:47.463Z,21.30
2018-07-07T03:02:16.476Z,21.30
2018-07-07T03:04:45.436Z,21.20
2018-07-07T03:07:14.376Z,21.30
2018-07-07T03:09:43.293Z,21.30
2018-07-07T03:12:12.295Z,21.30
2018-07-07T03:14:41.233Z,21.30
2018-07-07T03:17:10.187Z,21.40
2018-07-07T03:19:39.050Z,21.40
2018-07-07T03:22:07.988Z,21.40
2018-07-07T03:24:36.907Z,21.30
2018-07-07T03:29:34.287Z,21.20
2018-07-07T03:32:03.470Z,21.20
2018-07-07T03:34:32.343Z,21.20
2018-07-07T03:37:01.288Z,21.20
2018-07-07T03:39:30.171Z,21.10
2018-07-07T03:41:59.057Z,21.10
2018-07-07T03:44:27.960Z,21.00
2018-07-07T03:46:56.953Z,21.00
2018-07-07T03:51:54.361Z,21.00
2018-07-07T03:54:23.278Z,21.10
2018-07-07T03:56:52.280Z,21.10
2018-07-07T03:59:21.127Z,21.20
2018-07-07T04:01:50.104Z,21.10
2018-07-07T04:04:19.016Z,21.10
2018-07-07T04:06:48.047Z,21.00
2018-07-07T04:09:16.960Z,21.00
2018-07-07T04:11:45.878Z,20.90
2018-07-07T04:14:14.780Z,20.90
2018-07-07T04:16:43.671Z,21.00
2018-07-07T04:19:12.551Z,21.10
2018-07-07T04:21:41.449Z,21.30
2018-07-07T04:26:38.808Z,21.80
2018-07-07T04:29:07.679Z,22.00
2018-07-07T04:31:36.668Z,22.30
2018-07-07T04:34:05.838Z,22.50
2018-07-07T04:36:35.064Z,22.70
2018-07-07T04:39:04.837Z,22.80
2018-07-07T04:41:33.736Z,23.00
2018-07-07T04:44:02.771Z,23.20
2018-07-07T04:46:31.687Z,23.20
2018-07-07T04:49:00.594Z,23.20
2018-07-07T04:51:29.533Z,23.20
2018-07-07T04:53:58.434Z,23.10
2018-07-07T04:56:27.339Z,23.20
2018-07-07T04:58:56.262Z,23.20
2018-07-07T05:01:25.141Z,23.00
2018-07-07T05:03:54.030Z,22.70
2018-07-07T05:06:23.003Z,22.40
2018-07-07T05:08:51.908Z,22.20
2018-07-07T05:11:20.868Z,22.20
2018-07-07T05:16:18.245Z,21.90
2018-07-07T05:18:47.238Z,21.70
2018-07-07T05:21:16.240Z,21.70
2018-07-07T05:23:45.132Z,21.70
2018-07-07T05:26:14.044Z,21.70
2018-07-07T05:28:42.939Z,22.00
2018-07-07T05:31:11.950Z,22.30
2018-07-07T05:33:40.897Z,22.80
2018-07-07T05:36:09.944Z,22.70
2018-07-07T05:38:38.916Z,22.90
2018-07-07T05:41:08.028Z,23.10
2018-07-07T05:43:36.920Z,23.30
2018-07-07T05:46:06.012Z,23.40
2018-07-07T05:48:34.899Z,23.50
2018-07-07T05:51:03.980Z,23.50
2018-07-07T05:53:32.932Z,23.30
2018-07-07T05:56:01.892Z,23.80
2018-07-07T05:58:30.872Z,23.90
2018-07-07T06:00:59.875Z,24.30
2018-07-07T06:03:28.775Z,24.10
2018-07-07T06:05:57.669Z,24.30
2018-07-07T06:08:26.849Z,24.90
2018-07-07T06:10:55.731Z,25.00
2018-07-07T06:13:24.657Z,24.90
2018-07-07T06:15:53.623Z,25.30
2018-07-07T06:18:22.661Z,25.10
2018-07-07T06:20:51.585Z,24.90
2018-07-07T06:23:20.467Z,24.90
2018-07-07T06:25:49.403Z,24.80
2018-07-07T06:28:18.276Z,24.80
2018-07-07T06:30:47.160Z,24.50
2018-07-07T06:33:16.035Z,24.60
2018-07-07T06:35:44.973Z,24.60
2018-07-07T06:38:13.893Z,24.60
2018-07-07T06:40:42.832Z,24.80
2018-07-07T06:43:11.879Z,24.80
2018-07-07T06:45:40.819Z,24.70
2018-07-07T06:48:09.724Z,24.80
2018-07-07T06:50:38.600Z,24.70
2018-07-07T06:53:07.650Z,24.60
2018-07-07T06:55:36.520Z,24.40
2018-07-07T06:58:05.485Z,24.50
2018-07-07T07:00:34.534Z,24.40
2018-07-07T07:03:03.498Z,24.20
2018-07-07T07:05:32.467Z,24.00
2018-07-07T07:08:01.323Z,23.80
2018-07-07T07:10:30.275Z,23.70
2018-07-07T07:12:59.291Z,23.60
2018-07-07T07:15:28.248Z,23.40
2018-07-07T07:17:57.135Z,23.20
2018-07-07T07:20:26.372Z,23.20
2018-07-07T07:22:55.289Z,23.10
2018-07-07T07:25:24.181Z,23.00
2018-07-07T07:30:23.587Z,23.20
2018-07-07T07:32:52.593Z,23.20
2018-07-07T07:35:21.419Z,23.10
2018-07-07T07:37:50.369Z,23.10
2018-07-07T07:40:19.264Z,23.20
2018-07-07T07:42:48.147Z,23.20
2018-07-07T07:45:17.245Z,23.20
2018-07-07T07:47:46.200Z,23.20
2018-07-07T07:50:15.159Z,23.00
2018-07-07T07:52:44.102Z,23.30
2018-07-07T07:55:13.091Z,23.30
2018-07-07T07:57:42.016Z,23.30
2018-07-07T08:00:10.955Z,23.40
2018-07-07T08:02:39.950Z,23.50
2018-07-07T08:05:08.929Z,23.70
2018-07-07T08:07:37.860Z,23.50
2018-07-07T08:10:06.832Z,23.50
2018-07-07T08:12:35.928Z,23.40
2018-07-07T08:15:04.914Z,23.40
2018-07-07T08:17:33.884Z,23.40
2018-07-07T08:20:02.840Z,23.40
2018-07-07T08:22:31.815Z,23.60
2018-07-07T08:25:00.638Z,23.60
2018-07-07T08:27:29.570Z,23.60
2018-07-07T08:32:27.360Z,23.50
2018-07-07T08:34:56.443Z,23.60
2018-07-07T08:37:25.414Z,23.60
2018-07-07T08:39:54.391Z,23.70
2018-07-07T08:42:23.372Z,23.80
2018-07-07T08:44:52.327Z,24.00
2018-07-07T08:47:21.256Z,24.00
2018-07-07T08:49:54.648Z,24.10
2018-07-07T08:52:24.260Z,23.90
2018-07-07T08:54:53.413Z,24.00
2018-07-07T08:57:22.363Z,24.10
2018-07-07T08:59:51.332Z,24.30
2018-07-07T09:02:20.238Z,24.40
2018-07-07T09:04:49.134Z,24.60
2018-07-07T09:07:18.024Z,24.60
2018-07-07T09:09:46.915Z,24.60
2018-07-07T09:12:16.400Z,24.60
2018-07-07T09:17:14.711Z,24.60
2018-07-07T09:19:44.685Z,24.40
2018-07-07T09:22:13.570Z,24.40
2018-07-07T09:24:42.442Z,24.50
2018-07-07T09:27:11.658Z,24.60
2018-07-07T09:29:40.961Z,24.60
2018-07-07T09:32:09.926Z,24.70
2018-07-07T09:34:38.813Z,24.70
2018-07-07T09:37:07.697Z,24.80
2018-07-07T09:39:37.947Z,24.80
2018-07-07T09:42:06.835Z,24.90
2018-07-07T09:44:37.540Z,24.70
2018-07-07T09:47:07.036Z,24.80
2018-07-07T09:49:37.391Z,24.90
2018-07-07T09:52:06.342Z,25.00
2018-07-07T09:54:35.294Z,25.00
2018-07-07T09:57:04.231Z,24.90
2018-07-07T09:59:33.103Z,25.00
2018-07-07T10:02:02.013Z,25.10
2018-07-07T10:04:31.246Z,25.10
2018-07-07T10:07:00.490Z,25.20
2018-07-07T10:09:31.363Z,25.10
2018-07-07T10:12:00.463Z,25.10
2018-07-07T10:14:29.504Z,25.20
2018-07-07T10:16:58.765Z,25.30
2018-07-07T10:19:27.809Z,25.40
2018-07-07T10:21:56.893Z,25.50
2018-07-07T10:24:25.833Z,25.50
2018-07-07T10:26:55.046Z,25.60
2018-07-07T10:29:24.042Z,25.60
2018-07-07T10:31:52.950Z,25.70
2018-07-07T10:34:21.819Z,25.70
2018-07-07T10:36:50.887Z,25.60
2018-07-07T10:39:19.773Z,25.60
2018-07-07T10:41:49.472Z,25.60
2018-07-07T10:44:19.377Z,25.70
2018-07-07T10:46:48.383Z,25.70
2018-07-07T10:49:18.032Z,25.60
2018-07-07T10:51:47.244Z,25.70
2018-07-07T10:54:16.207Z,25.80
2018-07-07T10:56:45.164Z,25.80
2018-07-07T10:59:14.173Z,25.80
2018-07-07T11:01:43.096Z,25.90
2018-07-07T11:04:12.083Z,26.10
2018-07-07T11:06:41.112Z,26.00
2018-07-07T11:09:10.013Z,26.10
2018-07-07T11:11:38.990Z,26.10
2018-07-07T11:14:07.954Z,26.20
2018-07-07T11:16:36.929Z,26.30
2018-07-07T11:19:06.418Z,26.30
2018-07-07T11:21:35.369Z,26.30
2018-07-07T11:24:04.495Z,26.30
2018-07-07T11:26:33.455Z,26.20
2018-07-07T11:29:02.505Z,26.10
2018-07-07T11:31:31.391Z,26.00
2018-07-07T11:34:00.280Z,25.90
2018-07-07T11:36:29.329Z,25.90
2018-07-07T11:38:58.172Z,26.00
2018-07-07T11:41:27.212Z,26.10
2018-07-07T11:43:56.100Z,25.80
2018-07-07T11:48:53.471Z,26.10
2018-07-07T11:51:22.355Z,26.20
2018-07-07T11:53:51.270Z,26.30
2018-07-07T11:58:49.101Z,26.20
2018-07-07T12:01:18.084Z,26.30
2018-07-07T12:03:47.203Z,26.30
2018-07-07T12:06:16.164Z,26.40
2018-07-07T12:08:45.316Z,26.40
2018-07-07T12:11:14.411Z,26.60
2018-07-07T12:13:43.247Z,26.70
2018-07-07T12:16:12.279Z,26.50
2018-07-07T12:18:41.507Z,26.40
2018-07-07T12:21:10.585Z,26.50
2018-07-07T12:23:39.525Z,26.60
2018-07-07T12:26:08.555Z,26.60
2018-07-07T12:31:06.076Z,26.90
2018-07-07T12:33:35.136Z,26.80
2018-07-07T12:36:04.298Z,26.80
2018-07-07T12:38:33.231Z,26.90
2018-07-07T12:41:02.625Z,27.00
2018-07-07T12:43:31.735Z,27.20
2018-07-07T12:46:00.907Z,27.20
2018-07-07T12:48:29.705Z,27.20
2018-07-07T12:50:58.688Z,27.10
2018-07-07T12:53:27.608Z,26.50
2018-07-07T12:55:56.685Z,26.60
2018-07-07T12:58:25.614Z,26.70
2018-07-07T13:00:54.557Z,26.80
2018-07-07T13:03:23.591Z,26.80
2018-07-07T13:05:52.687Z,26.30
2018-07-07T13:08:21.586Z,26.50
2018-07-07T13:10:50.511Z,26.30
2018-07-07T13:13:19.506Z,26.50
2018-07-07T13:15:48.597Z,26.40
2018-07-07T13:18:17.564Z,26.50
2018-07-07T13:20:47.021Z,26.60
2018-07-07T13:25:46.220Z,26.70
2018-07-07T13:28:15.524Z,26.80
2018-07-07T13:33:13.002Z,26.90
2018-07-07T13:35:41.971Z,26.80
2018-07-07T13:38:11.006Z,27.00
2018-07-07T13:40:39.953Z,27.10
2018-07-07T13:43:08.951Z,27.10
2018-07-07T13:45:38.304Z,26.80
2018-07-07T13:48:09.069Z,26.80
2018-07-07T13:50:45.485Z,26.80
2018-07-07T13:53:14.485Z,26.70
2018-07-07T13:55:43.597Z,26.90
2018-07-07T13:58:12.807Z,27.00
2018-07-07T14:00:42.343Z,27.00
2018-07-07T14:03:11.901Z,27.00
2018-07-07T14:05:41.031Z,27.10
2018-07-07T14:08:09.972Z,27.00
2018-07-07T14:10:38.996Z,27.00
2018-07-07T14:13:08.044Z,27.10
2018-07-07T14:15:37.008Z,27.30
2018-07-07T14:18:05.938Z,27.40
2018-07-07T14:20:34.957Z,27.40
2018-07-07T14:23:03.961Z,27.50
2018-07-07T14:25:32.926Z,27.50
2018-07-07T14:28:02.172Z,27.50
2018-07-07T14:30:31.150Z,27.30
2018-07-07T14:33:00.168Z,27.00
2018-07-07T14:35:29.106Z,27.20
2018-07-07T14:37:58.152Z,27.30
2018-07-07T14:40:27.036Z,27.50
2018-07-07T14:42:56.042Z,27.50
2018-07-07T14:45:25.106Z,27.40
2018-07-07T14:47:54.129Z,27.30
2018-07-07T14:50:23.072Z,27.30
2018-07-07T14:52:52.073Z,27.50
2018-07-07T14:55:24.324Z,27.60
2018-07-07T14:57:53.292Z,27.80
2018-07-07T15:00:22.194Z,27.90
2018-07-07T15:02:51.091Z,27.90
2018-07-07T15:05:20.041Z,27.90
2018-07-07T15:07:48.997Z,28.00
2018-07-07T15:10:18.207Z,28.00
2018-07-07T15:12:47.107Z,27.70
2018-07-07T15:15:16.027Z,27.50
2018-07-07T15:17:44.984Z,27.60
2018-07-07T15:20:15.098Z,27.70
2018-07-07T15:22:45.403Z,27.90
2018-07-07T15:25:14.198Z,28.00
2018-07-07T15:27:43.147Z,28.00
2018-07-07T15:30:12.252Z,28.00
2018-07-07T15:32:41.195Z,28.10
2018-07-07T15:37:38.671Z,28.10
2018-07-07T15:40:07.714Z,28.00
2018-07-07T15:42:36.655Z,28.00
2018-07-07T15:45:05.582Z,28.00
2018-07-07T15:47:34.512Z,28.00
2018-07-07T15:50:04.135Z,27.80
2018-07-07T15:52:33.105Z,27.90
2018-07-07T15:55:02.212Z,28.00
2018-07-07T15:57:31.031Z,28.10
2018-07-07T16:00:00.220Z,28.10
2018-07-07T16:02:29.107Z,28.20
2018-07-07T16:04:58.146Z,28.20
2018-07-07T16:07:27.077Z,28.20
2018-07-07T16:09:56.216Z,28.20
2018-07-07T16:12:25.005Z,28.20
2018-07-07T16:14:53.947Z,28.10
2018-07-07T16:17:22.807Z,27.90
2018-07-07T16:19:51.751Z,27.80
2018-07-07T16:22:20.689Z,27.70
2018-07-07T16:24:49.668Z,27.70
2018-07-07T16:27:18.692Z,27.80
2018-07-07T16:29:47.551Z,27.70
2018-07-07T16:32:16.460Z,27.60
2018-07-07T16:34:45.438Z,27.40
2018-07-07T16:37:14.434Z,27.30
2018-07-07T16:39:43.272Z,27.30
2018-07-07T16:42:12.528Z,27.30
2018-07-07T16:47:09.942Z,27.40
2018-07-07T16:49:39.239Z,27.40
2018-07-07T16:52:08.699Z,27.30
2018-07-07T16:54:39.481Z,26.90
2018-07-07T16:57:08.446Z,26.90
2018-07-07T16:59:37.657Z,26.70
2018-07-07T17:02:07.032Z,26.60
2018-07-07T17:09:33.741Z,26.40
2018-07-07T17:12:02.744Z,26.30
2018-07-07T17:14:31.752Z,26.40
2018-07-07T17:17:00.851Z,26.50
2018-07-07T17:19:29.872Z,26.60
2018-07-07T17:21:58.821Z,26.60
2018-07-07T17:24:29.156Z,26.70
2018-07-07T17:26:58.492Z,26.80
2018-07-07T17:29:27.975Z,26.80
2018-07-07T17:31:57.042Z,26.70
2018-07-07T17:34:26.118Z,26.80
2018-07-07T17:36:55.850Z,26.80
2018-07-07T17:41:53.565Z,26.80
2018-07-07T17:44:22.618Z,26.80
2018-07-07T17:46:51.604Z,26.80
2018-07-07T17:49:20.862Z,26.60
2018-07-07T17:51:50.180Z,26.50
2018-07-07T17:54:19.900Z,26.30
2018-07-07T17:56:48.930Z,26.30
2018-07-07T17:59:17.934Z,26.20
2018-07-07T18:01:47.205Z,26.10
2018-07-07T18:04:16.185Z,26.00
2018-07-07T18:06:45.131Z,26.00
2018-07-07T18:11:42.662Z,25.90
2018-07-07T18:14:11.446Z,25.70
2018-07-07T18:16:40.428Z,25.80
2018-07-07T18:19:09.621Z,25.90
2018-07-07T18:21:38.510Z,26.00
2018-07-07T18:24:07.530Z,25.90
2018-07-07T18:26:36.452Z,25.70
2018-07-07T18:31:34.004Z,25.30
2018-07-07T18:34:02.928Z,25.10
2018-07-07T18:36:31.833Z,24.90
2018-07-07T18:39:00.875Z,24.60
2018-07-07T18:41:29.771Z,24.70
2018-07-07T18:43:58.664Z,24.70
2018-07-07T18:46:27.661Z,24.70
2018-07-07T18:48:56.593Z,24.90
2018-07-07T18:51:25.463Z,24.80
2018-07-07T18:53:54.635Z,24.80
2018-07-07T18:56:23.563Z,24.80
2018-07-07T18:58:52.423Z,24.70
2018-07-07T19:01:21.391Z,24.70
2018-07-07T19:03:50.259Z,24.80
2018-07-07T19:06:19.275Z,24.80
2018-07-07T19:08:48.197Z,24.90
2018-07-07T19:11:17.188Z,24.90
2018-07-07T19:13:46.160Z,24.70
2018-07-07T19:16:15.338Z,24.70
2018-07-07T19:18:44.333Z,24.70
2018-07-07T19:21:13.197Z,24.70
2018-07-07T19:23:42.313Z,24.60
2018-07-07T19:26:11.371Z,24.50
2018-07-07T19:28:40.257Z,24.40
2018-07-07T19:31:09.231Z,24.50
2018-07-07T19:33:38.265Z,24.50
2018-07-07T19:36:07.208Z,24.60
2018-07-07T19:41:04.811Z,24.40
2018-07-07T19:43:33.723Z,24.40
2018-07-07T19:46:02.801Z,24.30
2018-07-07T19:48:31.767Z,24.20
2018-07-07T19:51:00.803Z,24.30
2018-07-07T19:53:29.841Z,24.20
2018-07-07T19:55:58.961Z,24.30
2018-07-07T19:58:28.898Z,24.20
2018-07-07T20:00:57.918Z,24.30
2018-07-07T20:03:27.013Z,24.20
2018-07-07T20:05:56.045Z,24.30
2018-07-07T20:08:25.104Z,24.30
2018-07-07T20:10:54.141Z,24.30
2018-07-07T20:13:23.181Z,24.40
2018-07-07T20:16:11.924Z,24.40
2018-07-07T20:19:09.032Z,24.30
2018-07-07T20:21:47.056Z,24.20
2018-07-07T20:24:17.813Z,24.10
2018-07-07T20:26:46.763Z,24.10
2018-07-07T20:29:15.841Z,24.00
2018-07-07T20:31:44.827Z,23.80
2018-07-07T20:34:14.109Z,23.80
2018-07-07T20:36:43.071Z,23.80
2018-07-07T20:39:12.124Z,23.70
2018-07-07T20:41:41.075Z,23.70
2018-07-07T20:44:09.978Z,23.60
2018-07-07T20:46:39.053Z,23.60
2018-07-07T20:49:08.101Z,23.50
2018-07-07T20:51:37.102Z,23.50
2018-07-07T20:54:06.127Z,23.50
2018-07-07T20:56:35.136Z,23.50
2018-07-07T20:59:04.133Z,23.50
2018-07-07T21:01:33.339Z,23.50
2018-07-07T21:06:30.965Z,23.50
2018-07-07T21:09:00.263Z,23.30
2018-07-07T21:11:29.267Z,23.20
2018-07-07T21:13:58.196Z,23.10
2018-07-07T21:18:55.545Z,22.90
2018-07-07T21:21:24.710Z,22.90
2018-07-07T21:23:54.095Z,22.90
2018-07-07T21:26:23.137Z,22.90
2018-07-07T21:28:52.095Z,22.90
2018-07-07T21:31:21.058Z,23.00
2018-07-07T21:33:50.144Z,23.00
2018-07-07T21:36:19.074Z,23.00
2018-07-07T21:38:48.035Z,22.90
2018-07-07T21:41:16.964Z,22.80
2018-07-07T21:43:46.012Z,22.70
2018-07-07T21:46:14.967Z,22.80
2018-07-07T21:48:43.868Z,22.70
2018-07-07T21:51:12.822Z,22.70
2018-07-07T21:53:41.730Z,22.60
2018-07-07T21:56:10.677Z,22.70
2018-07-07T21:58:39.685Z,22.80
2018-07-07T22:01:16.703Z,22.80
2018-07-07T22:03:45.628Z,22.70
2018-07-07T22:06:14.604Z,22.50
2018-07-07T22:11:11.923Z,22.10
2018-07-07T22:13:40.873Z,22.20
2018-07-07T22:16:09.803Z,22.20
2018-07-07T22:18:38.820Z,22.10
2018-07-07T22:21:19.177Z,22.10
2018-07-07T22:23:48.218Z,22.20
2018-07-07T22:26:17.113Z,22.30
2018-07-07T22:28:46.051Z,22.40
2018-07-07T22:31:14.992Z,22.40
2018-07-07T22:33:43.887Z,22.40
2018-07-07T22:36:12.821Z,22.30
2018-07-07T22:38:41.752Z,22.40
2018-07-07T22:41:10.641Z,22.30
2018-07-07T22:43:39.471Z,22.20
2018-07-07T22:46:08.348Z,22.20
2018-07-07T22:48:37.262Z,22.10
2018-07-07T22:51:06.248Z,22.00
2018-07-07T22:53:35.146Z,22.00
2018-07-07T22:56:04.126Z,21.70
2018-07-07T22:58:33.189Z,21.60
2018-07-07T23:01:02.122Z,21.60
2018-07-07T23:03:31.022Z,21.40
2018-07-07T23:06:00.057Z,21.30
2018-07-07T23:08:28.910Z,21.20
2018-07-07T23:10:58.064Z,21.30
2018-07-07T23:13:27.072Z,21.20
2018-07-07T23:15:56.280Z,21.20
2018-07-07T23:18:25.120Z,21.20
2018-07-07T23:20:54.019Z,21.20
2018-07-07T23:23:23.027Z,21.10
2018-07-07T23:25:51.907Z,21.10
2018-07-07T23:28:20.791Z,21.10
2018-07-07T23:30:49.653Z,21.10
2018-07-07T23:33:18.581Z,21.10
2018-07-07T23:35:47.483Z,21.10
2018-07-07T23:38:16.443Z,21.00
2018-07-07T23:40:45.345Z,20.80
2018-07-07T23:43:14.865Z,20.70
2018-07-07T23:45:43.771Z,20.60
2018-07-07T23:48:12.670Z,20.50
2018-07-07T23:53:10.088Z,20.60
2018-07-07T23:55:38.977Z,20.50
2018-07-07T23:58:07.931Z,20.60
